sensor_id;sensor_type;location;lat;lon;timestamp;P1;durP1;ratioP1;P2;durP2;ratioP2
22904;SDS011;11619;50.140;8.518;2023-02-28T00:01:18;3.55;;;3.25;;
22904;SDS011;11619;50.140;8.518;2023-02-28T00:03:45;4.40;;;3.30;;
22904;SDS011;11619;50.140;8.518;2023-02-28T00:06:12;3.85;;;3.45;;
22904;SDS011;11619;50.140;8.518;2023-02-28T00:08:39;3.92;;;3.53;;
22904;SDS011;11619;50.140;8.518;2023-02-28T00:11:06;5.72;;;3.80;;
22904;SDS011;11619;50.140;8.518;2023-02-28T00:13:39;5.03;;;3.72;;
22904;SDS011;11619;50.140;8.518;2023-02-28T00:16:07;4.32;;;3.60;;
22904;SDS011;11619;50.140;8.518;2023-02-28T00:18:36;5.18;;;3.70;;
22904;SDS011;11619;50.140;8.518;2023-02-28T00:21:03;3.72;;;3.38;;
22904;SDS011;11619;50.140;8.518;2023-02-28T00:23:30;4.65;;;3.60;;
22904;SDS011;11619;50.140;8.518;2023-02-28T00:25:56;3.47;;;3.17;;
22904;SDS011;11619;50.140;8.518;2023-02-28T00:28:23;4.05;;;3.60;;
22904;SDS011;11619;50.140;8.518;2023-02-28T00:30:50;3.50;;;3.20;;
22904;SDS011;11619;50.140;8.518;2023-02-28T00:33:17;4.18;;;3.78;;
22904;SDS011;11619;50.140;8.518;2023-02-28T00:35:43;4.25;;;3.65;;
22904;SDS011;11619;50.140;8.518;2023-02-28T00:38:13;4.40;;;3.67;;
22904;SDS011;11619;50.140;8.518;2023-02-28T00:40:39;5.22;;;4.13;;
22904;SDS011;11619;50.140;8.518;2023-02-28T00:43:06;4.78;;;4.20;;
22904;SDS011;11619;50.140;8.518;2023-02-28T00:45:32;5.95;;;4.40;;
22904;SDS011;11619;50.140;8.518;2023-02-28T00:47:58;5.57;;;4.10;;
22904;SDS011;11619;50.140;8.518;2023-02-28T00:50:25;5.05;;;4.47;;
22904;SDS011;11619;50.140;8.518;2023-02-28T00:52:52;5.85;;;4.60;;
22904;SDS011;11619;50.140;8.518;2023-02-28T00:55:18;6.32;;;4.82;;
22904;SDS011;11619;50.140;8.518;2023-02-28T00:57:44;5.90;;;4.60;;
22904;SDS011;11619;50.140;8.518;2023-02-28T01:00:11;4.80;;;4.40;;
22904;SDS011;11619;50.140;8.518;2023-02-28T01:02:38;6.00;;;5.00;;
22904;SDS011;11619;50.140;8.518;2023-02-28T01:05:04;5.30;;;4.80;;
22904;SDS011;11619;50.140;8.518;2023-02-28T01:07:31;5.57;;;4.90;;
22904;SDS011;11619;50.140;8.518;2023-02-28T01:09:57;5.90;;;5.30;;
22904;SDS011;11619;50.140;8.518;2023-02-28T01:12:24;5.57;;;5.07;;
22904;SDS011;11619;50.140;8.518;2023-02-28T01:14:50;7.70;;;5.03;;
22904;SDS011;11619;50.140;8.518;2023-02-28T01:17:17;7.40;;;4.80;;
22904;SDS011;11619;50.140;8.518;2023-02-28T01:19:43;5.72;;;4.53;;
22904;SDS011;11619;50.140;8.518;2023-02-28T01:22:10;5.32;;;4.82;;
22904;SDS011;11619;50.140;8.518;2023-02-28T01:24:36;5.30;;;4.80;;
22904;SDS011;11619;50.140;8.518;2023-02-28T01:27:03;5.85;;;4.95;;
22904;SDS011;11619;50.140;8.518;2023-02-28T01:29:29;5.15;;;4.65;;
22904;SDS011;11619;50.140;8.518;2023-02-28T01:31:56;4.82;;;4.40;;
22904;SDS011;11619;50.140;8.518;2023-02-28T01:34:23;5.93;;;4.80;;
22904;SDS011;11619;50.140;8.518;2023-02-28T01:36:49;5.50;;;5.00;;
22904;SDS011;11619;50.140;8.518;2023-02-28T01:39:15;8.27;;;5.05;;
22904;SDS011;11619;50.140;8.518;2023-02-28T01:41:42;6.50;;;5.20;;
22904;SDS011;11619;50.140;8.518;2023-02-28T01:47:13;5.70;;;4.53;;
22904;SDS011;11619;50.140;8.518;2023-02-28T01:49:39;8.38;;;4.93;;
22904;SDS011;11619;50.140;8.518;2023-02-28T01:52:06;5.63;;;5.10;;
22904;SDS011;11619;50.140;8.518;2023-02-28T01:54:33;6.03;;;4.95;;
22904;SDS011;11619;50.140;8.518;2023-02-28T01:57:04;6.53;;;5.00;;
22904;SDS011;11619;50.140;8.518;2023-02-28T01:59:34;5.72;;;4.40;;
22904;SDS011;11619;50.140;8.518;2023-02-28T02:02:01;6.03;;;4.50;;
22904;SDS011;11619;50.140;8.518;2023-02-28T02:04:32;7.88;;;4.75;;
22904;SDS011;11619;50.140;8.518;2023-02-28T02:07:07;5.15;;;4.40;;
22904;SDS011;11619;50.140;8.518;2023-02-28T02:09:34;4.63;;;4.22;;
22904;SDS011;11619;50.140;8.518;2023-02-28T02:12:01;4.50;;;4.10;;
22904;SDS011;11619;50.140;8.518;2023-02-28T02:15:05;6.22;;;4.50;;
22904;SDS011;11619;50.140;8.518;2023-02-28T02:17:51;4.82;;;4.43;;
22904;SDS011;11619;50.140;8.518;2023-02-28T02:20:34;4.68;;;4.28;;
22904;SDS011;11619;50.140;8.518;2023-02-28T02:23:27;5.82;;;4.60;;
22904;SDS011;11619;50.140;8.518;2023-02-28T02:39:52;6.53;;;4.65;;
22904;SDS011;11619;50.140;8.518;2023-02-28T02:42:29;5.00;;;4.30;;
22904;SDS011;11619;50.140;8.518;2023-02-28T02:45:03;6.10;;;4.22;;
22904;SDS011;11619;50.140;8.518;2023-02-28T02:47:33;4.70;;;4.10;;
22904;SDS011;11619;50.140;8.518;2023-02-28T02:50:03;4.70;;;4.22;;
22904;SDS011;11619;50.140;8.518;2023-02-28T02:52:37;4.40;;;4.00;;
22904;SDS011;11619;50.140;8.518;2023-02-28T02:55:07;4.47;;;4.07;;
22904;SDS011;11619;50.140;8.518;2023-02-28T02:57:42;5.28;;;3.83;;
22904;SDS011;11619;50.140;8.518;2023-02-28T03:00:12;5.47;;;4.07;;
22904;SDS011;11619;50.140;8.518;2023-02-28T03:02:41;4.32;;;3.92;;
22904;SDS011;11619;50.140;8.518;2023-02-28T03:05:14;5.00;;;4.35;;
22904;SDS011;11619;50.140;8.518;2023-02-28T03:07:45;5.18;;;4.68;;
22904;SDS011;11619;50.140;8.518;2023-02-28T03:13:00;4.43;;;3.97;;
22904;SDS011;11619;50.140;8.518;2023-02-28T03:24:03;4.70;;;4.22;;
22904;SDS011;11619;50.140;8.518;2023-02-28T03:26:36;4.57;;;4.13;;
22904;SDS011;11619;50.140;8.518;2023-02-28T03:29:27;4.90;;;3.97;;
22904;SDS011;11619;50.140;8.518;2023-02-28T03:32:02;5.30;;;4.50;;
22904;SDS011;11619;50.140;8.518;2023-02-28T03:34:33;4.75;;;4.20;;
22904;SDS011;11619;50.140;8.518;2023-02-28T03:37:10;5.88;;;4.47;;
22904;SDS011;11619;50.140;8.518;2023-02-28T03:39:41;5.38;;;4.82;;
22904;SDS011;11619;50.140;8.518;2023-02-28T03:42:11;4.68;;;4.28;;
22904;SDS011;11619;50.140;8.518;2023-02-28T03:44:45;5.10;;;4.60;;
22904;SDS011;11619;50.140;8.518;2023-02-28T03:47:16;5.55;;;4.72;;
22904;SDS011;11619;50.140;8.518;2023-02-28T03:52:30;4.88;;;4.38;;
22904;SDS011;11619;50.140;8.518;2023-02-28T03:55:00;5.20;;;4.70;;
22904;SDS011;11619;50.140;8.518;2023-02-28T04:00:28;5.00;;;4.53;;
22904;SDS011;11619;50.140;8.518;2023-02-28T04:02:58;6.95;;;4.50;;
22904;SDS011;11619;50.140;8.518;2023-02-28T04:05:25;5.88;;;4.95;;
22904;SDS011;11619;50.140;8.518;2023-02-28T04:07:52;5.18;;;4.30;;
22904;SDS011;11619;50.140;8.518;2023-02-28T04:10:18;4.65;;;4.25;;
22904;SDS011;11619;50.140;8.518;2023-02-28T04:12:45;4.47;;;4.07;;
22904;SDS011;11619;50.140;8.518;2023-02-28T04:15:11;4.18;;;3.72;;
22904;SDS011;11619;50.140;8.518;2023-02-28T04:17:38;4.57;;;4.13;;
22904;SDS011;11619;50.140;8.518;2023-02-28T04:20:04;4.82;;;4.38;;
22904;SDS011;11619;50.140;8.518;2023-02-28T04:22:35;4.97;;;4.43;;
22904;SDS011;11619;50.140;8.518;2023-02-28T04:25:03;5.10;;;4.28;;
22904;SDS011;11619;50.140;8.518;2023-02-28T04:27:30;4.28;;;3.88;;
22904;SDS011;11619;50.140;8.518;2023-02-28T04:29:57;4.97;;;4.40;;
22904;SDS011;11619;50.140;8.518;2023-02-28T04:32:24;5.10;;;4.15;;
22904;SDS011;11619;50.140;8.518;2023-02-28T04:34:51;4.70;;;4.10;;
22904;SDS011;11619;50.140;8.518;2023-02-28T04:37:17;4.80;;;4.20;;
22904;SDS011;11619;50.140;8.518;2023-02-28T04:39:43;4.65;;;3.78;;
22904;SDS011;11619;50.140;8.518;2023-02-28T04:42:10;5.65;;;3.83;;
22904;SDS011;11619;50.140;8.518;2023-02-28T04:44:37;7.95;;;3.63;;
22904;SDS011;11619;50.140;8.518;2023-02-28T04:47:03;5.25;;;3.72;;
22904;SDS011;11619;50.140;8.518;2023-02-28T04:49:29;4.50;;;3.55;;
22904;SDS011;11619;50.140;8.518;2023-02-28T04:51:56;4.72;;;3.97;;
22904;SDS011;11619;50.140;8.518;2023-02-28T04:54:23;4.10;;;3.33;;
22904;SDS011;11619;50.140;8.518;2023-02-28T04:56:49;3.88;;;3.47;;
22904;SDS011;11619;50.140;8.518;2023-02-28T04:59:16;3.83;;;3.42;;
22904;SDS011;11619;50.140;8.518;2023-02-28T05:01:45;5.22;;;4.13;;
22904;SDS011;11619;50.140;8.518;2023-02-28T05:04:13;5.00;;;3.35;;
22904;SDS011;11619;50.140;8.518;2023-02-28T05:06:39;3.40;;;3.10;;
22904;SDS011;11619;50.140;8.518;2023-02-28T05:09:06;3.92;;;3.55;;
22904;SDS011;11619;50.140;8.518;2023-02-28T05:11:33;4.05;;;3.40;;
22904;SDS011;11619;50.140;8.518;2023-02-28T05:14:01;4.13;;;3.75;;
22904;SDS011;11619;50.140;8.518;2023-02-28T05:16:30;5.38;;;3.75;;
22904;SDS011;11619;50.140;8.518;2023-02-28T05:18:57;3.80;;;3.50;;
22904;SDS011;11619;50.140;8.518;2023-02-28T05:21:25;4.45;;;3.20;;
22904;SDS011;11619;50.140;8.518;2023-02-28T05:23:59;3.72;;;3.30;;
22904;SDS011;11619;50.140;8.518;2023-02-28T05:26:28;4.10;;;3.10;;
22904;SDS011;11619;50.140;8.518;2023-02-28T05:28:55;4.18;;;3.67;;
22904;SDS011;11619;50.140;8.518;2023-02-28T05:31:22;4.65;;;3.60;;
22904;SDS011;11619;50.140;8.518;2023-02-28T05:33:48;4.28;;;3.30;;
22904;SDS011;11619;50.140;8.518;2023-02-28T05:36:15;3.60;;;3.30;;
22904;SDS011;11619;50.140;8.518;2023-02-28T05:38:41;4.65;;;3.38;;
22904;SDS011;11619;50.140;8.518;2023-02-28T05:41:08;5.18;;;3.65;;
22904;SDS011;11619;50.140;8.518;2023-02-28T05:43:36;5.40;;;3.10;;
22904;SDS011;11619;50.140;8.518;2023-02-28T05:46:04;3.83;;;3.35;;
22904;SDS011;11619;50.140;8.518;2023-02-28T05:48:32;3.50;;;3.20;;
22904;SDS011;11619;50.140;8.518;2023-02-28T05:50:59;4.10;;;3.42;;
22904;SDS011;11619;50.140;8.518;2023-02-28T05:53:25;3.78;;;3.00;;
22904;SDS011;11619;50.140;8.518;2023-02-28T05:55:52;4.35;;;3.30;;
22904;SDS011;11619;50.140;8.518;2023-02-28T05:58:18;3.15;;;2.70;;
22904;SDS011;11619;50.140;8.518;2023-02-28T06:00:45;4.57;;;3.50;;
22904;SDS011;11619;50.140;8.518;2023-02-28T06:03:11;4.43;;;3.22;;
22904;SDS011;11619;50.140;8.518;2023-02-28T06:05:38;3.75;;;3.10;;
22904;SDS011;11619;50.140;8.518;2023-02-28T06:08:04;5.32;;;3.25;;
22904;SDS011;11619;50.140;8.518;2023-02-28T06:10:33;3.80;;;3.50;;
22904;SDS011;11619;50.140;8.518;2023-02-28T06:13:03;4.38;;;3.50;;
22904;SDS011;11619;50.140;8.518;2023-02-28T06:15:30;4.93;;;3.40;;
22904;SDS011;11619;50.140;8.518;2023-02-28T06:17:56;5.78;;;4.88;;
22904;SDS011;11619;50.140;8.518;2023-02-28T06:20:23;9.38;;;7.10;;
22904;SDS011;11619;50.140;8.518;2023-02-28T06:22:50;14.00;;;6.40;;
22904;SDS011;11619;50.140;8.518;2023-02-28T06:25:17;9.82;;;7.78;;
22904;SDS011;11619;50.140;8.518;2023-02-28T06:27:44;5.00;;;3.92;;
22904;SDS011;11619;50.140;8.518;2023-02-28T06:30:10;11.82;;;5.00;;
22904;SDS011;11619;50.140;8.518;2023-02-28T06:32:37;5.07;;;3.15;;
22904;SDS011;11619;50.140;8.518;2023-02-28T06:35:04;8.25;;;4.80;;
22904;SDS011;11619;50.140;8.518;2023-02-28T06:37:31;4.80;;;4.10;;
22904;SDS011;11619;50.140;8.518;2023-02-28T06:39:57;4.50;;;3.67;;
22904;SDS011;11619;50.140;8.518;2023-02-28T06:42:24;5.72;;;4.05;;
22904;SDS011;11619;50.140;8.518;2023-02-28T06:44:55;6.50;;;4.13;;
22904;SDS011;11619;50.140;8.518;2023-02-28T06:47:22;5.38;;;3.90;;
22904;SDS011;11619;50.140;8.518;2023-02-28T06:49:48;4.20;;;3.58;;
22904;SDS011;11619;50.140;8.518;2023-02-28T06:52:15;4.15;;;3.75;;
22904;SDS011;11619;50.140;8.518;2023-02-28T06:54:41;4.55;;;3.65;;
22904;SDS011;11619;50.140;8.518;2023-02-28T06:57:08;6.32;;;3.97;;
22904;SDS011;11619;50.140;8.518;2023-02-28T06:59:34;4.50;;;4.05;;
22904;SDS011;11619;50.140;8.518;2023-02-28T07:02:01;6.50;;;4.40;;
22904;SDS011;11619;50.140;8.518;2023-02-28T07:04:28;4.47;;;3.83;;
22904;SDS011;11619;50.140;8.518;2023-02-28T07:06:54;6.28;;;4.10;;
22904;SDS011;11619;50.140;8.518;2023-02-28T07:09:23;5.15;;;4.38;;
22904;SDS011;11619;50.140;8.518;2023-02-28T07:11:51;5.60;;;4.05;;
22904;SDS011;11619;50.140;8.518;2023-02-28T07:14:18;5.05;;;4.30;;
22904;SDS011;11619;50.140;8.518;2023-02-28T07:16:44;6.72;;;4.70;;
22904;SDS011;11619;50.140;8.518;2023-02-28T07:19:11;9.23;;;4.63;;
22904;SDS011;11619;50.140;8.518;2023-02-28T07:21:38;5.35;;;4.28;;
22904;SDS011;11619;50.140;8.518;2023-02-28T07:24:05;7.20;;;4.25;;
22904;SDS011;11619;50.140;8.518;2023-02-28T07:26:31;5.22;;;4.30;;
22904;SDS011;11619;50.140;8.518;2023-02-28T07:29:00;6.55;;;4.00;;
22904;SDS011;11619;50.140;8.518;2023-02-28T07:31:26;5.20;;;4.45;;
22904;SDS011;11619;50.140;8.518;2023-02-28T07:33:53;6.32;;;4.78;;
22904;SDS011;11619;50.140;8.518;2023-02-28T07:36:20;7.60;;;4.53;;
22904;SDS011;11619;50.140;8.518;2023-02-28T07:38:47;6.60;;;4.60;;
22904;SDS011;11619;50.140;8.518;2023-02-28T07:41:16;5.55;;;4.95;;
22904;SDS011;11619;50.140;8.518;2023-02-28T07:43:43;7.57;;;5.38;;
22904;SDS011;11619;50.140;8.518;2023-02-28T07:46:11;5.63;;;4.85;;
22904;SDS011;11619;50.140;8.518;2023-02-28T07:48:41;5.95;;;5.05;;
22904;SDS011;11619;50.140;8.518;2023-02-28T07:51:07;5.57;;;4.95;;
22904;SDS011;11619;50.140;8.518;2023-02-28T07:53:34;5.43;;;4.75;;
22904;SDS011;11619;50.140;8.518;2023-02-28T07:56:01;6.50;;;4.50;;
22904;SDS011;11619;50.140;8.518;2023-02-28T07:58:29;5.78;;;4.75;;
22904;SDS011;11619;50.140;8.518;2023-02-28T08:00:56;6.55;;;4.28;;
22904;SDS011;11619;50.140;8.518;2023-02-28T08:03:23;5.03;;;4.40;;
22904;SDS011;11619;50.140;8.518;2023-02-28T08:05:50;6.97;;;4.72;;
22904;SDS011;11619;50.140;8.518;2023-02-28T08:08:16;7.57;;;4.68;;
22904;SDS011;11619;50.140;8.518;2023-02-28T08:10:43;8.20;;;4.85;;
22904;SDS011;11619;50.140;8.518;2023-02-28T08:13:09;5.90;;;4.32;;
22904;SDS011;11619;50.140;8.518;2023-02-28T08:15:36;5.32;;;4.30;;
22904;SDS011;11619;50.140;8.518;2023-02-28T08:18:02;6.70;;;4.55;;
22904;SDS011;11619;50.140;8.518;2023-02-28T08:20:29;4.70;;;4.22;;
22904;SDS011;11619;50.140;8.518;2023-02-28T08:22:55;5.57;;;4.40;;
22904;SDS011;11619;50.140;8.518;2023-02-28T08:25:22;5.38;;;4.28;;
22904;SDS011;11619;50.140;8.518;2023-02-28T08:27:50;7.20;;;4.10;;
22904;SDS011;11619;50.140;8.518;2023-02-28T08:30:17;6.47;;;4.40;;
22904;SDS011;11619;50.140;8.518;2023-02-28T08:32:43;5.47;;;4.45;;
22904;SDS011;11619;50.140;8.518;2023-02-28T08:35:10;5.28;;;4.43;;
22904;SDS011;11619;50.140;8.518;2023-02-28T08:37:36;4.82;;;4.28;;
22904;SDS011;11619;50.140;8.518;2023-02-28T08:40:03;6.78;;;4.55;;
22904;SDS011;11619;50.140;8.518;2023-02-28T08:42:30;6.80;;;4.78;;
22904;SDS011;11619;50.140;8.518;2023-02-28T08:44:58;6.18;;;4.35;;
22904;SDS011;11619;50.140;8.518;2023-02-28T08:47:24;6.68;;;4.57;;
22904;SDS011;11619;50.140;8.518;2023-02-28T08:49:51;6.88;;;4.32;;
22904;SDS011;11619;50.140;8.518;2023-02-28T08:52:17;5.65;;;4.47;;
22904;SDS011;11619;50.140;8.518;2023-02-28T08:54:44;7.03;;;5.07;;
22904;SDS011;11619;50.140;8.518;2023-02-28T08:57:10;6.45;;;4.88;;
22904;SDS011;11619;50.140;8.518;2023-02-28T08:59:36;5.80;;;4.55;;
22904;SDS011;11619;50.140;8.518;2023-02-28T09:02:03;6.57;;;4.65;;
22904;SDS011;11619;50.140;8.518;2023-02-28T09:04:29;4.20;;;3.80;;
22904;SDS011;11619;50.140;8.518;2023-02-28T09:06:57;4.95;;;3.80;;
22904;SDS011;11619;50.140;8.518;2023-02-28T09:09:23;4.78;;;4.28;;
22904;SDS011;11619;50.140;8.518;2023-02-28T09:11:49;7.55;;;4.03;;
22904;SDS011;11619;50.140;8.518;2023-02-28T09:14:16;4.63;;;3.88;;
22904;SDS011;11619;50.140;8.518;2023-02-28T09:16:43;8.73;;;3.92;;
22904;SDS011;11619;50.140;8.518;2023-02-28T09:19:10;5.32;;;4.25;;
22904;SDS011;11619;50.140;8.518;2023-02-28T09:21:38;4.47;;;3.95;;
22904;SDS011;11619;50.140;8.518;2023-02-28T09:24:04;5.75;;;4.55;;
22904;SDS011;11619;50.140;8.518;2023-02-28T09:26:31;6.00;;;4.22;;
22904;SDS011;11619;50.140;8.518;2023-02-28T09:29:12;5.45;;;4.03;;
22904;SDS011;11619;50.140;8.518;2023-02-28T09:31:39;4.28;;;3.85;;
22904;SDS011;11619;50.140;8.518;2023-02-28T09:34:07;4.82;;;3.90;;
22904;SDS011;11619;50.140;8.518;2023-02-28T09:36:34;4.45;;;4.05;;
22904;SDS011;11619;50.140;8.518;2023-02-28T09:39:11;5.38;;;4.03;;
22904;SDS011;11619;50.140;8.518;2023-02-28T09:41:39;4.88;;;3.72;;
22904;SDS011;11619;50.140;8.518;2023-02-28T09:47:13;5.13;;;4.10;;
22904;SDS011;11619;50.140;8.518;2023-02-28T09:49:44;5.03;;;4.03;;
22904;SDS011;11619;50.140;8.518;2023-02-28T09:52:20;4.43;;;4.00;;
22904;SDS011;11619;50.140;8.518;2023-02-28T09:54:48;6.10;;;3.95;;
22904;SDS011;11619;50.140;8.518;2023-02-28T09:57:19;4.68;;;4.25;;
22904;SDS011;11619;50.140;8.518;2023-02-28T10:05:39;5.63;;;4.38;;
22904;SDS011;11619;50.140;8.518;2023-02-28T10:11:12;5.15;;;4.28;;
22904;SDS011;11619;50.140;8.518;2023-02-28T10:16:39;7.90;;;4.60;;
22904;SDS011;11619;50.140;8.518;2023-02-28T10:21:46;5.80;;;4.57;;
22904;SDS011;11619;50.140;8.518;2023-02-28T10:24:28;5.78;;;4.50;;
22904;SDS011;11619;50.140;8.518;2023-02-28T10:26:56;5.35;;;4.47;;
22904;SDS011;11619;50.140;8.518;2023-02-28T10:29:26;4.93;;;4.32;;
22904;SDS011;11619;50.140;8.518;2023-02-28T10:31:55;5.00;;;4.32;;
22904;SDS011;11619;50.140;8.518;2023-02-28T10:34:22;7.05;;;4.70;;
22904;SDS011;11619;50.140;8.518;2023-02-28T10:36:48;5.28;;;4.47;;
22904;SDS011;11619;50.140;8.518;2023-02-28T10:42:02;5.93;;;5.32;;
22904;SDS011;11619;50.140;8.518;2023-02-28T10:44:29;6.13;;;5.45;;
22904;SDS011;11619;50.140;8.518;2023-02-28T10:46:57;6.00;;;5.13;;
22904;SDS011;11619;50.140;8.518;2023-02-28T10:49:25;5.15;;;4.65;;
22904;SDS011;11619;50.140;8.518;2023-02-28T10:51:55;5.65;;;5.15;;
22904;SDS011;11619;50.140;8.518;2023-02-28T10:54:32;5.28;;;4.72;;
22904;SDS011;11619;50.140;8.518;2023-02-28T10:57:18;5.82;;;5.20;;
22904;SDS011;11619;50.140;8.518;2023-02-28T11:00:05;7.20;;;5.30;;
22904;SDS011;11619;50.140;8.518;2023-02-28T11:02:38;9.18;;;5.15;;
22904;SDS011;11619;50.140;8.518;2023-02-28T11:05:24;7.57;;;5.53;;
22904;SDS011;11619;50.140;8.518;2023-02-28T11:07:56;5.10;;;4.47;;
22904;SDS011;11619;50.140;8.518;2023-02-28T11:10:26;5.32;;;4.82;;
22904;SDS011;11619;50.140;8.518;2023-02-28T11:12:55;6.60;;;5.13;;
22904;SDS011;11619;50.140;8.518;2023-02-28T11:15:28;4.95;;;4.45;;
22904;SDS011;11619;50.140;8.518;2023-02-28T11:18:00;6.25;;;5.30;;
22904;SDS011;11619;50.140;8.518;2023-02-28T11:20:29;5.85;;;5.25;;
22904;SDS011;11619;50.140;8.518;2023-02-28T11:22:57;6.43;;;5.13;;
22904;SDS011;11619;50.140;8.518;2023-02-28T11:25:34;5.18;;;4.50;;
22904;SDS011;11619;50.140;8.518;2023-02-28T11:28:04;6.15;;;5.00;;
22904;SDS011;11619;50.140;8.518;2023-02-28T11:30:36;6.13;;;4.78;;
22904;SDS011;11619;50.140;8.518;2023-02-28T11:35:51;5.25;;;4.65;;
22904;SDS011;11619;50.140;8.518;2023-02-28T11:38:19;6.28;;;4.72;;
22904;SDS011;11619;50.140;8.518;2023-02-28T11:40:51;6.88;;;5.22;;
22904;SDS011;11619;50.140;8.518;2023-02-28T11:43:25;5.35;;;4.78;;
22904;SDS011;11619;50.140;8.518;2023-02-28T11:46:08;6.82;;;5.13;;
22904;SDS011;11619;50.140;8.518;2023-02-28T11:51:28;5.45;;;4.95;;
22904;SDS011;11619;50.140;8.518;2023-02-28T11:56:50;7.18;;;4.55;;
22904;SDS011;11619;50.140;8.518;2023-02-28T12:05:34;6.72;;;5.55;;
22904;SDS011;11619;50.140;8.518;2023-02-28T12:08:20;5.70;;;5.07;;
22904;SDS011;11619;50.140;8.518;2023-02-28T12:13:37;6.45;;;5.35;;
22904;SDS011;11619;50.140;8.518;2023-02-28T12:16:18;7.80;;;5.70;;
22904;SDS011;11619;50.140;8.518;2023-02-28T12:19:04;7.53;;;5.45;;
22904;SDS011;11619;50.140;8.518;2023-02-28T12:27:19;9.23;;;6.03;;
22904;SDS011;11619;50.140;8.518;2023-02-28T12:29:49;7.90;;;5.60;;
22904;SDS011;11619;50.140;8.518;2023-02-28T12:32:41;7.47;;;5.38;;
22904;SDS011;11619;50.140;8.518;2023-02-28T12:40:19;6.25;;;5.13;;
22904;SDS011;11619;50.140;8.518;2023-02-28T12:42:49;7.00;;;6.30;;
22904;SDS011;11619;50.140;8.518;2023-02-28T12:45:25;7.25;;;5.55;;
22904;SDS011;11619;50.140;8.518;2023-02-28T12:47:58;7.13;;;5.85;;
22904;SDS011;11619;50.140;8.518;2023-02-28T12:50:27;9.97;;;8.17;;
22904;SDS011;11619;50.140;8.518;2023-02-28T12:53:00;7.50;;;5.70;;
22904;SDS011;11619;50.140;8.518;2023-02-28T12:55:41;7.03;;;5.35;;
22904;SDS011;11619;50.140;8.518;2023-02-28T12:58:30;7.18;;;5.60;;
22904;SDS011;11619;50.140;8.518;2023-02-28T13:01:12;6.57;;;5.90;;
22904;SDS011;11619;50.140;8.518;2023-02-28T13:06:45;7.53;;;5.47;;
22904;SDS011;11619;50.140;8.518;2023-02-28T13:09:27;6.20;;;5.40;;
22904;SDS011;11619;50.140;8.518;2023-02-28T13:11:55;7.53;;;5.25;;
22904;SDS011;11619;50.140;8.518;2023-02-28T13:14:26;6.10;;;5.50;;
22904;SDS011;11619;50.140;8.518;2023-02-28T13:17:09;7.43;;;5.88;;
22904;SDS011;11619;50.140;8.518;2023-02-28T13:22:18;6.00;;;5.40;;
22904;SDS011;11619;50.140;8.518;2023-02-28T13:29:52;6.72;;;6.00;;
22904;SDS011;11619;50.140;8.518;2023-02-28T13:32:19;6.43;;;5.82;;
22904;SDS011;11619;50.140;8.518;2023-02-28T13:47:40;7.35;;;5.57;;
22904;SDS011;11619;50.140;8.518;2023-02-28T13:58:53;6.05;;;5.45;;
22904;SDS011;11619;50.140;8.518;2023-02-28T14:07:04;6.95;;;5.65;;
22904;SDS011;11619;50.140;8.518;2023-02-28T14:09:34;6.22;;;5.18;;
22904;SDS011;11619;50.140;8.518;2023-02-28T14:17:54;8.18;;;6.45;;
22904;SDS011;11619;50.140;8.518;2023-02-28T14:20:22;7.03;;;5.60;;
22904;SDS011;11619;50.140;8.518;2023-02-28T14:22:54;5.63;;;5.03;;
22904;SDS011;11619;50.140;8.518;2023-02-28T14:26:06;7.80;;;5.65;;
22904;SDS011;11619;50.140;8.518;2023-02-28T14:32:02;6.82;;;5.55;;
22904;SDS011;11619;50.140;8.518;2023-02-28T14:34:59;6.53;;;5.60;;
22904;SDS011;11619;50.140;8.518;2023-02-28T14:37:37;6.55;;;5.63;;
22904;SDS011;11619;50.140;8.518;2023-02-28T14:40:11;6.70;;;5.70;;
22904;SDS011;11619;50.140;8.518;2023-02-28T14:42:45;5.47;;;4.97;;
22904;SDS011;11619;50.140;8.518;2023-02-28T14:45:42;9.07;;;6.28;;
22904;SDS011;11619;50.140;8.518;2023-02-28T14:48:09;5.80;;;5.20;;
22904;SDS011;11619;50.140;8.518;2023-02-28T14:50:36;7.03;;;5.00;;
22904;SDS011;11619;50.140;8.518;2023-02-28T14:53:03;6.28;;;5.68;;
22904;SDS011;11619;50.140;8.518;2023-02-28T14:55:31;5.63;;;4.97;;
22904;SDS011;11619;50.140;8.518;2023-02-28T14:58:03;6.72;;;6.03;;
22904;SDS011;11619;50.140;8.518;2023-02-28T15:00:33;6.90;;;6.20;;
22904;SDS011;11619;50.140;8.518;2023-02-28T15:03:11;6.45;;;5.70;;
22904;SDS011;11619;50.140;8.518;2023-02-28T15:05:51;8.57;;;5.65;;
22904;SDS011;11619;50.140;8.518;2023-02-28T15:08:18;6.35;;;5.43;;
22904;SDS011;11619;50.140;8.518;2023-02-28T15:10:54;7.72;;;6.00;;
22904;SDS011;11619;50.140;8.518;2023-02-28T15:13:22;6.15;;;5.55;;
22904;SDS011;11619;50.140;8.518;2023-02-28T15:15:51;6.20;;;5.43;;
22904;SDS011;11619;50.140;8.518;2023-02-28T15:21:17;8.93;;;5.90;;
22904;SDS011;11619;50.140;8.518;2023-02-28T15:23:45;7.70;;;6.43;;
22904;SDS011;11619;50.140;8.518;2023-02-28T15:26:21;7.25;;;5.95;;
22904;SDS011;11619;50.140;8.518;2023-02-28T15:28:51;7.10;;;5.82;;
22904;SDS011;11619;50.140;8.518;2023-02-28T15:31:23;7.97;;;6.18;;
22904;SDS011;11619;50.140;8.518;2023-02-28T15:33:54;6.95;;;5.70;;
22904;SDS011;11619;50.140;8.518;2023-02-28T15:36:23;6.53;;;5.30;;
22904;SDS011;11619;50.140;8.518;2023-02-28T15:38:55;6.97;;;5.75;;
22904;SDS011;11619;50.140;8.518;2023-02-28T15:41:36;6.00;;;5.38;;
22904;SDS011;11619;50.140;8.518;2023-02-28T15:44:13;5.78;;;5.18;;
22904;SDS011;11619;50.140;8.518;2023-02-28T15:46:54;7.63;;;5.03;;
22904;SDS011;11619;50.140;8.518;2023-02-28T15:49:27;9.05;;;5.55;;
22904;SDS011;11619;50.140;8.518;2023-02-28T15:51:57;7.78;;;5.70;;
22904;SDS011;11619;50.140;8.518;2023-02-28T15:54:43;7.93;;;5.80;;
22904;SDS011;11619;50.140;8.518;2023-02-28T15:57:13;6.13;;;5.40;;
22904;SDS011;11619;50.140;8.518;2023-02-28T15:59:44;8.07;;;5.95;;
22904;SDS011;11619;50.140;8.518;2023-02-28T16:02:17;7.63;;;5.95;;
22904;SDS011;11619;50.140;8.518;2023-02-28T16:04:57;6.65;;;5.65;;
22904;SDS011;11619;50.140;8.518;2023-02-28T16:07:37;7.18;;;6.00;;
22904;SDS011;11619;50.140;8.518;2023-02-28T16:10:07;7.88;;;6.30;;
22904;SDS011;11619;50.140;8.518;2023-02-28T16:12:35;6.93;;;6.15;;
22904;SDS011;11619;50.140;8.518;2023-02-28T16:15:07;8.68;;;6.13;;
22904;SDS011;11619;50.140;8.518;2023-02-28T16:17:37;7.20;;;6.25;;
22904;SDS011;11619;50.140;8.518;2023-02-28T16:20:18;6.47;;;5.63;;
22904;SDS011;11619;50.140;8.518;2023-02-28T16:22:49;9.48;;;6.63;;
22904;SDS011;11619;50.140;8.518;2023-02-28T16:25:17;6.68;;;5.88;;
22904;SDS011;11619;50.140;8.518;2023-02-28T16:27:50;6.65;;;5.95;;
22904;SDS011;11619;50.140;8.518;2023-02-28T16:30:20;7.05;;;5.70;;
22904;SDS011;11619;50.140;8.518;2023-02-28T16:32:49;8.10;;;6.22;;
22904;SDS011;11619;50.140;8.518;2023-02-28T16:35:15;7.53;;;6.53;;
22904;SDS011;11619;50.140;8.518;2023-02-28T16:37:44;6.85;;;5.57;;
22904;SDS011;11619;50.140;8.518;2023-02-28T16:40:17;9.45;;;6.88;;
22904;SDS011;11619;50.140;8.518;2023-02-28T16:42:47;8.13;;;6.50;;
22904;SDS011;11619;50.140;8.518;2023-02-28T16:45:21;6.85;;;6.13;;
22904;SDS011;11619;50.140;8.518;2023-02-28T16:47:49;8.65;;;6.10;;
22904;SDS011;11619;50.140;8.518;2023-02-28T16:50:23;7.53;;;6.57;;
22904;SDS011;11619;50.140;8.518;2023-02-28T16:52:50;7.68;;;6.38;;
22904;SDS011;11619;50.140;8.518;2023-02-28T16:55:21;8.82;;;6.05;;
22904;SDS011;11619;50.140;8.518;2023-02-28T16:57:52;7.22;;;5.88;;
22904;SDS011;11619;50.140;8.518;2023-02-28T17:00:20;8.57;;;6.38;;
22904;SDS011;11619;50.140;8.518;2023-02-28T17:02:47;8.68;;;6.30;;
22904;SDS011;11619;50.140;8.518;2023-02-28T17:05:13;7.38;;;5.45;;
22904;SDS011;11619;50.140;8.518;2023-02-28T17:07:41;7.88;;;6.13;;
22904;SDS011;11619;50.140;8.518;2023-02-28T17:12:42;6.70;;;5.78;;
22904;SDS011;11619;50.140;8.518;2023-02-28T17:15:09;10.57;;;6.38;;
22904;SDS011;11619;50.140;8.518;2023-02-28T17:17:37;7.40;;;6.65;;
22904;SDS011;11619;50.140;8.518;2023-02-28T17:20:04;7.80;;;6.07;;